createdAt,value
2022-10-12T00:02:43.374Z,2.27
2022-10-12T00:08:03.467Z,1.77
2022-10-12T00:13:23.626Z,2.20
2022-10-12T00:18:43.742Z,2.10
2022-10-12T00:24:03.920Z,1.97
2022-10-12T00:29:24.044Z,2.17
2022-10-12T00:34:44.221Z,2.27
2022-10-12T00:40:04.421Z,2.47
2022-10-12T00:45:24.495Z,2.00
2022-10-12T00:50:44.564Z,1.97
2022-10-12T00:56:04.730Z,2.37
2022-10-12T01:01:24.820Z,1.77
2022-10-12T01:06:45.190Z,1.70
2022-10-12T01:12:05.316Z,2.10
2022-10-12T01:17:25.607Z,1.90
2022-10-12T01:22:45.665Z,1.70
2022-10-12T01:28:05.872Z,2.10
2022-10-12T01:33:26.065Z,1.60
2022-10-12T01:38:46.263Z,1.70
2022-10-12T01:44:06.365Z,2.30
2022-10-12T01:49:26.611Z,1.90
2022-10-12T01:54:46.679Z,1.60
2022-10-12T02:00:06.903Z,1.93
2022-10-12T02:05:27.041Z,1.70
2022-10-12T02:10:47.215Z,2.13
2022-10-12T02:16:07.281Z,2.03
2022-10-12T02:21:27.389Z,2.00
2022-10-12T02:26:47.522Z,2.40
2022-10-12T02:32:07.762Z,2.10
2022-10-12T02:37:28.003Z,2.03
2022-10-12T02:43:09.406Z,2.50
2022-10-12T02:48:28.479Z,1.90
2022-10-12T02:53:48.657Z,2.17
2022-10-12T02:59:08.616Z,2.63
2022-10-12T03:04:28.883Z,2.00
2022-10-12T03:09:49.110Z,1.93
2022-10-12T03:15:09.191Z,2.07
2022-10-12T03:20:29.372Z,1.97
2022-10-12T03:25:49.576Z,2.03
2022-10-12T03:31:09.778Z,1.47
2022-10-12T03:36:29.788Z,2.13
2022-10-12T03:41:49.747Z,2.23
2022-10-12T03:47:09.807Z,1.90
2022-10-12T03:52:30.017Z,1.83
2022-10-12T03:57:50.208Z,2.17
2022-10-12T04:03:10.213Z,2.00
2022-10-12T04:08:30.407Z,1.77
2022-10-12T04:13:50.447Z,1.70
2022-10-12T04:19:10.618Z,2.00
2022-10-12T04:24:30.664Z,2.27
2022-10-12T04:29:50.923Z,1.80
2022-10-12T04:35:10.952Z,1.57
2022-10-12T04:40:31.452Z,1.53
2022-10-12T04:45:51.539Z,2.00
2022-10-12T04:51:11.599Z,1.77
2022-10-12T04:56:31.683Z,1.97
2022-10-12T05:01:51.957Z,1.77
2022-10-12T05:07:12.015Z,1.60
2022-10-12T05:12:32.110Z,1.80
2022-10-12T05:17:52.222Z,1.70
2022-10-12T05:23:12.260Z,2.00
2022-10-12T05:28:33.985Z,2.00
2022-10-12T05:33:56.880Z,1.87
2022-10-12T05:39:16.935Z,1.83
2022-10-12T05:44:37.029Z,1.93
2022-10-12T05:49:57.076Z,2.03
2022-10-12T05:55:17.166Z,1.80
2022-10-12T06:00:37.346Z,1.60
2022-10-12T06:05:57.553Z,1.90
2022-10-12T06:11:17.492Z,1.50
2022-10-12T06:16:37.762Z,1.70
2022-10-12T06:21:57.872Z,2.03
2022-10-12T06:27:18.063Z,1.60
2022-10-12T06:32:38.279Z,1.80
2022-10-12T06:37:59.097Z,2.00
2022-10-12T06:43:19.082Z,1.60
2022-10-12T06:48:39.220Z,2.00
2022-10-12T06:53:59.261Z,1.60
2022-10-12T06:59:19.557Z,1.70
2022-10-12T07:04:39.616Z,1.80
2022-10-12T07:09:59.909Z,1.80
2022-10-12T07:15:19.943Z,2.00
2022-10-12T07:20:40.048Z,1.80
2022-10-12T07:26:00.069Z,1.80
2022-10-12T07:31:20.295Z,1.97
2022-10-12T07:36:57.954Z,1.90
2022-10-12T07:42:19.700Z,2.17
2022-10-12T07:47:40.389Z,2.10
2022-10-12T07:53:01.928Z,1.97
2022-10-12T07:58:21.939Z,2.10
2022-10-12T08:03:42.121Z,1.80
2022-10-12T08:09:02.262Z,1.87
2022-10-12T08:14:22.444Z,2.00
2022-10-12T08:19:42.698Z,2.60
2022-10-12T08:25:02.802Z,1.93
2022-10-12T08:30:23.052Z,1.90
2022-10-12T08:35:43.531Z,1.80
2022-10-12T08:41:03.569Z,1.93
2022-10-12T08:46:23.659Z,1.70
2022-10-12T08:51:44.050Z,2.10
2022-10-12T08:57:04.184Z,1.93
2022-10-12T09:02:24.391Z,2.27
2022-10-12T09:07:44.435Z,2.43
2022-10-12T09:13:04.945Z,1.83
2022-10-12T09:18:25.128Z,2.10
2022-10-12T09:23:45.390Z,1.60
2022-10-12T09:29:05.465Z,1.90
2022-10-12T09:34:25.538Z,1.87
2022-10-12T09:39:45.662Z,1.90
2022-10-12T09:45:05.668Z,1.97
2022-10-12T09:50:25.755Z,1.73
2022-10-12T09:55:46.102Z,1.80
2022-10-12T10:01:06.262Z,2.10
2022-10-12T10:06:26.464Z,1.80
2022-10-12T10:11:46.769Z,1.83
2022-10-12T10:17:06.840Z,2.20
2022-10-12T10:22:27.124Z,1.70
2022-10-12T10:27:47.352Z,2.00
2022-10-12T10:33:07.614Z,2.00
2022-10-12T10:38:27.641Z,2.00
2022-10-12T10:43:47.798Z,1.67
2022-10-12T10:49:07.941Z,1.50
2022-10-12T10:54:28.056Z,1.80
2022-10-12T10:59:48.153Z,1.80
2022-10-12T11:05:08.428Z,2.20
2022-10-12T11:10:28.488Z,1.80
2022-10-12T11:15:48.680Z,1.70
2022-10-12T11:21:08.783Z,1.70
2022-10-12T11:26:28.959Z,1.70
2022-10-12T11:31:49.098Z,1.73
2022-10-12T11:37:19.258Z,2.00
2022-10-12T11:42:43.401Z,1.60
2022-10-12T11:48:03.590Z,1.80
2022-10-12T11:53:23.654Z,1.93
2022-10-12T11:59:01.346Z,2.70
2022-10-12T12:04:42.254Z,1.70
2022-10-12T12:10:01.512Z,1.43
2022-10-12T12:15:21.729Z,1.67
2022-10-12T12:20:41.910Z,1.60
2022-10-12T12:26:02.125Z,2.27
2022-10-12T12:31:22.210Z,2.30
2022-10-12T12:36:42.340Z,2.20
2022-10-12T12:42:02.811Z,1.90
2022-10-12T12:53:03.487Z,2.67
2022-10-12T12:58:23.613Z,2.60
2022-10-12T13:03:43.804Z,2.47
2022-10-12T13:09:03.907Z,2.33
2022-10-12T13:14:24.013Z,2.47
2022-10-12T13:19:44.193Z,2.50
2022-10-12T13:25:04.311Z,2.40
2022-10-12T13:30:24.424Z,2.83
2022-10-12T13:35:44.534Z,3.43
2022-10-12T13:41:04.697Z,2.63
2022-10-12T13:46:24.804Z,2.70
2022-10-12T13:51:44.840Z,2.80
2022-10-12T13:57:05.122Z,2.37
2022-10-12T14:02:25.335Z,2.40
2022-10-12T14:07:45.497Z,2.60
2022-10-12T14:13:05.678Z,2.10
2022-10-12T14:18:25.733Z,2.53
2022-10-12T14:23:45.997Z,2.00
2022-10-12T14:29:06.260Z,2.13
2022-10-12T14:34:26.409Z,2.47
2022-10-12T14:39:46.507Z,2.10
2022-10-12T14:45:06.685Z,2.50
2022-10-12T14:50:26.936Z,2.10
2022-10-12T14:55:48.592Z,1.77
2022-10-12T15:01:11.064Z,2.50
2022-10-12T15:06:31.089Z,2.90
2022-10-12T15:11:51.180Z,2.40
2022-10-12T15:17:11.488Z,2.80
2022-10-12T15:22:31.426Z,2.60
2022-10-12T15:27:51.694Z,2.20
2022-10-12T15:33:11.813Z,2.63
2022-10-12T15:38:31.892Z,3.10
2022-10-12T15:43:52.026Z,2.90
2022-10-12T15:49:13.378Z,3.33
2022-10-12T15:54:35.180Z,3.00
2022-10-12T15:59:55.375Z,3.50
2022-10-12T16:05:15.390Z,3.73
2022-10-12T16:10:35.724Z,4.90
2022-10-12T16:15:55.804Z,5.87
2022-10-12T16:21:16.153Z,7.23
2022-10-12T16:26:36.221Z,7.10
2022-10-12T16:31:56.468Z,4.30
2022-10-12T16:37:16.553Z,4.13
2022-10-12T16:42:36.752Z,3.93
2022-10-12T16:47:56.824Z,4.03
2022-10-12T16:53:17.086Z,4.53
2022-10-12T16:58:37.236Z,4.27
2022-10-12T17:03:57.412Z,4.37
2022-10-12T17:09:17.453Z,4.73
2022-10-12T17:14:37.823Z,6.47
2022-10-12T17:19:57.915Z,7.20
2022-10-12T17:25:18.057Z,6.73
2022-10-12T17:30:38.141Z,6.90
2022-10-12T17:35:58.340Z,6.70
2022-10-12T17:41:18.424Z,6.67
2022-10-12T17:46:38.789Z,6.67
2022-10-12T17:51:58.781Z,5.87
2022-10-12T17:57:19.574Z,6.00
2022-10-12T18:02:40.410Z,6.40
2022-10-12T18:08:00.606Z,6.13
2022-10-12T18:13:20.753Z,6.00
2022-10-12T18:18:41.021Z,6.70
2022-10-12T18:24:01.064Z,5.53
2022-10-12T18:29:21.355Z,6.07
2022-10-12T18:34:41.489Z,6.33
2022-10-12T18:40:01.678Z,5.70
2022-10-12T18:45:21.820Z,6.00
2022-10-12T18:50:41.968Z,5.70
2022-10-12T18:56:02.011Z,5.50
2022-10-12T19:01:22.347Z,6.07
2022-10-12T19:06:42.400Z,5.60
2022-10-12T19:12:02.796Z,6.33
2022-10-12T19:17:22.901Z,5.30
2022-10-12T19:22:43.149Z,5.53
2022-10-12T19:28:03.294Z,6.87
2022-10-12T19:33:23.580Z,6.50
2022-10-12T19:38:43.815Z,7.10
2022-10-12T19:44:04.025Z,7.00
2022-10-12T19:49:24.163Z,6.30
2022-10-12T19:54:44.455Z,6.57
2022-10-12T20:00:04.661Z,7.10
2022-10-12T20:05:24.954Z,7.90
2022-10-12T20:10:44.973Z,7.13
2022-10-12T20:16:05.136Z,9.50
2022-10-12T20:21:25.154Z,8.50
2022-10-12T20:26:45.365Z,8.30
2022-10-12T20:32:05.480Z,9.33
2022-10-12T20:37:25.609Z,10.73
2022-10-12T20:42:45.726Z,10.30
2022-10-12T20:48:05.892Z,11.70
2022-10-12T20:53:26.072Z,12.30
2022-10-12T20:58:46.266Z,13.33
2022-10-12T21:04:06.511Z,12.20
2022-10-12T21:09:26.649Z,10.43
2022-10-12T21:14:47.000Z,10.23
2022-10-12T21:20:07.091Z,10.93
2022-10-12T21:25:27.347Z,11.97
2022-10-12T21:30:47.510Z,10.40
2022-10-12T21:36:07.678Z,10.60
2022-10-12T21:41:27.863Z,10.83
2022-10-12T21:46:47.954Z,10.87
2022-10-12T21:52:08.012Z,10.20
2022-10-12T21:57:28.119Z,10.57
2022-10-12T22:02:48.315Z,9.73
2022-10-12T22:08:08.504Z,9.40
2022-10-12T22:13:28.671Z,9.63
2022-10-12T22:18:48.851Z,9.43
2022-10-12T22:24:08.954Z,9.93
2022-10-12T22:29:29.110Z,8.37
2022-10-12T22:34:49.151Z,9.40
2022-10-12T22:40:09.284Z,8.90
2022-10-12T22:45:29.408Z,7.90
2022-10-12T22:50:49.647Z,7.90
2022-10-12T22:56:09.656Z,8.93
2022-10-12T23:01:30.155Z,8.87
2022-10-12T23:06:49.998Z,8.27
2022-10-12T23:12:10.236Z,7.90
2022-10-12T23:17:30.452Z,8.40
2022-10-12T23:22:50.567Z,9.23
2022-10-12T23:28:10.695Z,8.77
2022-10-12T23:33:31.040Z,8.00
2022-10-12T23:38:51.115Z,8.53
2022-10-12T23:44:11.487Z,7.57
2022-10-12T23:49:31.619Z,7.37
2022-10-12T23:54:51.774Z,8.00
